Aberdeen, OH

8:53 AM EST on February 12, 2016 (GMT -0500)
Huntington Twp | | Change Station
CLOSE
Current Station
Personal Weather Station
Location: Aberdeen, OH
Elevation: 863 ft
Nearby Weather Stations

Elev 863 ft 38.71 °N, 83.77 °W | Updated 3 minutes ago

Overcast
Overcast
20.6 °F
Feels Like 21 °F
N
0.0
Wind Variable Wind from NE
Gusts 0.0 mph

Today
High -- | Low -- °F
--% Chance of Precip.
Yesterday
High -- | Low -- °F
Precip. -- in
Pressure 30.17 in
Visibility 10.0 miles
Clouds Mostly Cloudy 5000 ft
Overcast 7000 ft
Windchill 21 °F
Dew Point 14 °F
Humidity 74%
Rainfall 0.00 in
Snow Depth Not available.
7:30 AM 6:08 PM
Waxing Crescent, 20% visible
METAR KI69 121336Z AUTO 00000KT 10SM BKN050 OVC070 M07/M11 A3017 RMK AO2 T10671109
Pressure 30.17 in
Visibility 10.0 miles
Clouds Mostly Cloudy 5000 ft
Overcast 7000 ft
Windchill 21 °F
Dew Point 14 °F
Humidity 74%
Rainfall 0.00 in
Snow Depth Not available.
7:30 AM 6:08 PM
Waxing Crescent, 20% visible
METAR KI69 121336Z AUTO 00000KT 10SM BKN050 OVC070 M07/M11 A3017 RMK AO2 T10671109

10-Day Weather Forecast

Almanac

Astronomy

Feb. 12, 2016 Rise Set
Actual Time
Civil Twilight
Nautical Twilight
Astronomical Twilight
Moon
Length of Visible Light
Length of Day
Tomorrow will be .
, % of the Moon is Illuminated

Today's Extremes

State Highs State Lows

Community

WunderPhotos

Upload Photos

1,892,313 photos uploaded!

WunderBlog® & News

Nearby

Air Quality

  Air Quality AQ Index Pollutant
Not available.

Snow Depth

Station Depth Elevation

Earthquake Activity

City Distance Mag. Time & Date
Minimum magnitude displayed is 2.5.

Coastal Water Temperatures

Place Temperature

Stations

Nearby Weather Stations

Station Location Temp. Windchill Dew Point Humidity Wind Precip. Elev Updated Type
                   

Watches & Warnings

There are currently no watches in effect.